sensor_id;sensor_type;location;lat;lon;timestamp;temperature;humidity
23083;DHT22;11709;52.420;10.538;2023-04-09T00:02:26;6.70;99.90
23083;DHT22;11709;52.420;10.538;2023-04-09T00:06:28;6.60;99.90
23083;DHT22;11709;52.420;10.538;2023-04-09T00:14:33;6.20;99.90
23083;DHT22;11709;52.420;10.538;2023-04-09T00:18:36;6.20;99.90
23083;DHT22;11709;52.420;10.538;2023-04-09T00:22:38;6.20;99.90
23083;DHT22;11709;52.420;10.538;2023-04-09T00:26:41;6.20;99.90
23083;DHT22;11709;52.420;10.538;2023-04-09T00:30:44;6.10;99.90
23083;DHT22;11709;52.420;10.538;2023-04-09T00:34:46;6.10;99.90
23083;DHT22;11709;52.420;10.538;2023-04-09T00:38:49;6.00;99.90
23083;DHT22;11709;52.420;10.538;2023-04-09T00:42:54;5.90;99.90
23083;DHT22;11709;52.420;10.538;2023-04-09T00:51:52;5.80;99.90
23083;DHT22;11709;52.420;10.538;2023-04-09T00:55:59;5.80;99.90
23083;DHT22;11709;52.420;10.538;2023-04-09T01:00:03;5.70;99.90
23083;DHT22;11709;52.420;10.538;2023-04-09T01:04:08;5.70;99.90
23083;DHT22;11709;52.420;10.538;2023-04-09T01:08:45;6.20;99.90
23083;DHT22;11709;52.420;10.538;2023-04-09T01:29:22;5.70;99.90
23083;DHT22;11709;52.420;10.538;2023-04-09T01:45:34;6.10;99.90
23083;DHT22;11709;52.420;10.538;2023-04-09T02:22:10;5.60;99.90
23083;DHT22;11709;52.420;10.538;2023-04-09T02:26:13;6.30;99.90
23083;DHT22;11709;52.420;10.538;2023-04-09T02:34:18;5.40;99.90
23083;DHT22;11709;52.420;10.538;2023-04-09T03:26:48;5.10;99.90
23083;DHT22;11709;52.420;10.538;2023-04-09T03:47:00;5.00;99.90
23083;DHT22;11709;52.420;10.538;2023-04-09T03:59:09;5.00;99.90
23083;DHT22;11709;52.420;10.538;2023-04-09T04:03:11;5.10;99.90
23083;DHT22;11709;52.420;10.538;2023-04-09T04:51:39;5.00;99.90
23083;DHT22;11709;52.420;10.538;2023-04-09T05:07:49;5.30;99.90
23083;DHT22;11709;52.420;10.538;2023-04-09T05:23:58;5.60;99.90
23083;DHT22;11709;52.420;10.538;2023-04-09T05:48:13;5.70;99.90
23083;DHT22;11709;52.420;10.538;2023-04-09T05:52:17;5.90;99.90
23083;DHT22;11709;52.420;10.538;2023-04-09T06:24:41;6.80;99.90
23083;DHT22;11709;52.420;10.538;2023-04-09T06:32:46;5.20;99.90
23083;DHT22;11709;52.420;10.538;2023-04-09T06:44:53;5.30;99.90
23083;DHT22;11709;52.420;10.538;2023-04-09T06:52:58;6.70;99.90
23083;DHT22;11709;52.420;10.538;2023-04-09T06:57:01;6.60;99.90
23083;DHT22;11709;52.420;10.538;2023-04-09T07:21:16;6.60;99.90
23083;DHT22;11709;52.420;10.538;2023-04-09T07:25:19;6.50;99.90
23083;DHT22;11709;52.420;10.538;2023-04-09T07:37:26;7.20;99.90
23083;DHT22;11709;52.420;10.538;2023-04-09T07:45:32;7.10;99.90
23083;DHT22;11709;52.420;10.538;2023-04-09T08:17:56;6.80;99.90
23083;DHT22;11709;52.420;10.538;2023-04-09T08:54:20;7.20;99.90
23083;DHT22;11709;52.420;10.538;2023-04-09T09:18:42;7.10;99.90
23083;DHT22;11709;52.420;10.538;2023-04-09T09:39:03;6.80;99.90
23083;DHT22;11709;52.420;10.538;2023-04-09T09:43:07;7.20;99.90
23083;DHT22;11709;52.420;10.538;2023-04-09T09:47:11;8.50;99.90
23083;DHT22;11709;52.420;10.538;2023-04-09T10:07:28;8.30;99.90
23083;DHT22;11709;52.420;10.538;2023-04-09T10:23:43;8.90;99.90
23083;DHT22;11709;52.420;10.538;2023-04-09T10:31:52;9.30;99.90
23083;DHT22;11709;52.420;10.538;2023-04-09T11:32:49;15.00;99.90
23083;DHT22;11709;52.420;10.538;2023-04-09T11:49:02;15.80;99.90
23083;DHT22;11709;52.420;10.538;2023-04-09T12:42:02;17.20;99.90
23083;DHT22;11709;52.420;10.538;2023-04-09T12:50:08;18.80;99.90
23083;DHT22;11709;52.420;10.538;2023-04-09T12:54:10;19.00;99.90
23083;DHT22;11709;52.420;10.538;2023-04-09T12:58:13;19.70;99.90
23083;DHT22;11709;52.420;10.538;2023-04-09T13:22:27;19.00;99.90
23083;DHT22;11709;52.420;10.538;2023-04-09T13:26:32;18.00;99.90
23083;DHT22;11709;52.420;10.538;2023-04-09T13:30:35;19.00;99.90
23083;DHT22;11709;52.420;10.538;2023-04-09T13:38:40;18.90;99.60
23083;DHT22;11709;52.420;10.538;2023-04-09T13:50:47;20.60;92.90
23083;DHT22;11709;52.420;10.538;2023-04-09T13:54:49;21.20;97.50
23083;DHT22;11709;52.420;10.538;2023-04-09T13:58:53;20.20;96.80
23083;DHT22;11709;52.420;10.538;2023-04-09T14:06:58;19.80;95.90
23083;DHT22;11709;52.420;10.538;2023-04-09T14:19:06;20.70;87.10
23083;DHT22;11709;52.420;10.538;2023-04-09T14:35:18;20.80;95.30
23083;DHT22;11709;52.420;10.538;2023-04-09T14:43:23;21.40;94.20
23083;DHT22;11709;52.420;10.538;2023-04-09T14:55:33;21.50;72.10
23083;DHT22;11709;52.420;10.538;2023-04-09T14:59:36;21.70;74.30
23083;DHT22;11709;52.420;10.538;2023-04-09T15:03:38;21.60;72.50
23083;DHT22;11709;52.420;10.538;2023-04-09T15:07:42;21.60;71.50
23083;DHT22;11709;52.420;10.538;2023-04-09T15:11:44;21.60;71.80
23083;DHT22;11709;52.420;10.538;2023-04-09T15:15:47;21.80;72.00
23083;DHT22;11709;52.420;10.538;2023-04-09T15:19:51;21.90;70.60
23083;DHT22;11709;52.420;10.538;2023-04-09T15:23:53;21.70;70.90
23083;DHT22;11709;52.420;10.538;2023-04-09T15:27:58;20.90;73.80
23083;DHT22;11709;52.420;10.538;2023-04-09T15:32:00;20.70;72.70
23083;DHT22;11709;52.420;10.538;2023-04-09T15:36:03;20.40;72.90
23083;DHT22;11709;52.420;10.538;2023-04-09T15:40:06;20.20;73.60
23083;DHT22;11709;52.420;10.538;2023-04-09T15:44:09;20.10;72.80
23083;DHT22;11709;52.420;10.538;2023-04-09T15:48:12;19.80;74.00
23083;DHT22;11709;52.420;10.538;2023-04-09T15:52:14;19.50;74.60
23083;DHT22;11709;52.420;10.538;2023-04-09T15:56:17;19.20;75.70
23083;DHT22;11709;52.420;10.538;2023-04-09T16:00:20;19.10;75.20
23083;DHT22;11709;52.420;10.538;2023-04-09T16:04:24;18.70;77.40
23083;DHT22;11709;52.420;10.538;2023-04-09T16:08:28;18.60;77.60
23083;DHT22;11709;52.420;10.538;2023-04-09T16:12:30;18.80;79.70
23083;DHT22;11709;52.420;10.538;2023-04-09T16:16:33;18.30;80.40
23083;DHT22;11709;52.420;10.538;2023-04-09T16:20:35;18.00;80.60
23083;DHT22;11709;52.420;10.538;2023-04-09T16:24:38;17.90;82.40
23083;DHT22;11709;52.420;10.538;2023-04-09T16:28:40;17.90;84.50
23083;DHT22;11709;52.420;10.538;2023-04-09T16:32:43;17.90;85.10
23083;DHT22;11709;52.420;10.538;2023-04-09T16:36:45;17.80;85.70
23083;DHT22;11709;52.420;10.538;2023-04-09T16:40:48;17.90;86.60
23083;DHT22;11709;52.420;10.538;2023-04-09T16:44:50;17.40;86.20
23083;DHT22;11709;52.420;10.538;2023-04-09T16:48:54;17.20;88.20
23083;DHT22;11709;52.420;10.538;2023-04-09T16:52:57;17.00;88.70
23083;DHT22;11709;52.420;10.538;2023-04-09T16:57:01;16.80;90.00
23083;DHT22;11709;52.420;10.538;2023-04-09T17:01:04;16.30;91.50
23083;DHT22;11709;52.420;10.538;2023-04-09T17:05:06;16.10;91.90
23083;DHT22;11709;52.420;10.538;2023-04-09T17:09:09;15.90;92.00
23083;DHT22;11709;52.420;10.538;2023-04-09T17:13:12;15.70;92.90
23083;DHT22;11709;52.420;10.538;2023-04-09T17:17:14;15.30;93.80
23083;DHT22;11709;52.420;10.538;2023-04-09T17:21:17;15.20;96.10
23083;DHT22;11709;52.420;10.538;2023-04-09T17:25:19;15.00;96.70
23083;DHT22;11709;52.420;10.538;2023-04-09T17:29:22;14.90;97.20
23083;DHT22;11709;52.420;10.538;2023-04-09T17:33:24;14.60;97.40
23083;DHT22;11709;52.420;10.538;2023-04-09T17:37:27;14.40;98.50
23083;DHT22;11709;52.420;10.538;2023-04-09T17:41:30;14.10;99.30
23083;DHT22;11709;52.420;10.538;2023-04-09T17:45:33;13.80;99.90
23083;DHT22;11709;52.420;10.538;2023-04-09T17:49:35;13.70;99.90
23083;DHT22;11709;52.420;10.538;2023-04-09T17:53:38;13.60;99.90
23083;DHT22;11709;52.420;10.538;2023-04-09T17:57:40;13.40;99.90
23083;DHT22;11709;52.420;10.538;2023-04-09T18:01:43;13.20;99.90
23083;DHT22;11709;52.420;10.538;2023-04-09T18:05:45;13.10;99.90
23083;DHT22;11709;52.420;10.538;2023-04-09T18:09:48;12.90;99.90
23083;DHT22;11709;52.420;10.538;2023-04-09T18:13:50;12.70;99.90
23083;DHT22;11709;52.420;10.538;2023-04-09T18:17:53;12.40;99.90
23083;DHT22;11709;52.420;10.538;2023-04-09T18:21:56;12.40;99.90
23083;DHT22;11709;52.420;10.538;2023-04-09T18:25:58;12.30;99.90
23083;DHT22;11709;52.420;10.538;2023-04-09T18:30:01;12.30;99.90
23083;DHT22;11709;52.420;10.538;2023-04-09T18:34:04;12.20;99.90
23083;DHT22;11709;52.420;10.538;2023-04-09T18:38:06;12.00;99.90
23083;DHT22;11709;52.420;10.538;2023-04-09T18:42:09;11.90;99.90
23083;DHT22;11709;52.420;10.538;2023-04-09T18:46:11;11.80;99.90
23083;DHT22;11709;52.420;10.538;2023-04-09T18:50:14;11.70;99.90
23083;DHT22;11709;52.420;10.538;2023-04-09T18:54:18;11.50;99.90
23083;DHT22;11709;52.420;10.538;2023-04-09T18:58:20;11.30;99.90
23083;DHT22;11709;52.420;10.538;2023-04-09T19:02:23;11.10;99.90
23083;DHT22;11709;52.420;10.538;2023-04-09T19:06:25;11.10;99.90
23083;DHT22;11709;52.420;10.538;2023-04-09T19:10:28;11.10;99.90
23083;DHT22;11709;52.420;10.538;2023-04-09T19:14:31;10.90;99.90
23083;DHT22;11709;52.420;10.538;2023-04-09T19:18:34;11.00;99.90
23083;DHT22;11709;52.420;10.538;2023-04-09T19:22:36;10.80;99.90
23083;DHT22;11709;52.420;10.538;2023-04-09T19:26:39;10.70;99.90
23083;DHT22;11709;52.420;10.538;2023-04-09T19:30:41;10.50;99.90
23083;DHT22;11709;52.420;10.538;2023-04-09T19:34:44;10.40;99.90
23083;DHT22;11709;52.420;10.538;2023-04-09T19:38:46;10.40;99.90
23083;DHT22;11709;52.420;10.538;2023-04-09T19:42:49;10.30;99.90
23083;DHT22;11709;52.420;10.538;2023-04-09T19:46:51;10.20;99.90
23083;DHT22;11709;52.420;10.538;2023-04-09T19:50:54;10.20;99.90
23083;DHT22;11709;52.420;10.538;2023-04-09T19:54:57;10.10;99.90
23083;DHT22;11709;52.420;10.538;2023-04-09T19:58:58;10.20;99.90
23083;DHT22;11709;52.420;10.538;2023-04-09T20:03:01;10.20;99.90
23083;DHT22;11709;52.420;10.538;2023-04-09T20:07:05;10.10;99.90
23083;DHT22;11709;52.420;10.538;2023-04-09T20:11:13;10.10;99.90
23083;DHT22;11709;52.420;10.538;2023-04-09T20:15:12;10.00;99.90
23083;DHT22;11709;52.420;10.538;2023-04-09T20:19:14;10.00;99.90
23083;DHT22;11709;52.420;10.538;2023-04-09T20:23:17;9.90;99.90
23083;DHT22;11709;52.420;10.538;2023-04-09T20:27:20;9.80;99.90
23083;DHT22;11709;52.420;10.538;2023-04-09T20:31:23;9.70;99.90
23083;DHT22;11709;52.420;10.538;2023-04-09T20:35:27;9.60;99.90
23083;DHT22;11709;52.420;10.538;2023-04-09T20:39:29;9.60;99.90
23083;DHT22;11709;52.420;10.538;2023-04-09T20:43:32;9.60;99.90
23083;DHT22;11709;52.420;10.538;2023-04-09T20:47:34;9.40;99.90
23083;DHT22;11709;52.420;10.538;2023-04-09T20:51:37;9.40;99.90
23083;DHT22;11709;52.420;10.538;2023-04-09T20:55:40;9.20;99.90
23083;DHT22;11709;52.420;10.538;2023-04-09T20:59:42;9.10;99.90
23083;DHT22;11709;52.420;10.538;2023-04-09T21:03:45;9.10;99.90
23083;DHT22;11709;52.420;10.538;2023-04-09T21:07:47;9.00;99.90
23083;DHT22;11709;52.420;10.538;2023-04-09T21:11:50;8.90;99.90
23083;DHT22;11709;52.420;10.538;2023-04-09T21:15:52;8.90;99.90
23083;DHT22;11709;52.420;10.538;2023-04-09T21:19:56;8.80;99.90
23083;DHT22;11709;52.420;10.538;2023-04-09T21:23:58;8.80;99.90
23083;DHT22;11709;52.420;10.538;2023-04-09T21:28:01;8.70;99.90
23083;DHT22;11709;52.420;10.538;2023-04-09T21:32:03;8.60;99.90
23083;DHT22;11709;52.420;10.538;2023-04-09T21:36:07;8.60;99.90
23083;DHT22;11709;52.420;10.538;2023-04-09T21:40:10;8.50;99.90
23083;DHT22;11709;52.420;10.538;2023-04-09T21:44:12;8.40;99.90
23083;DHT22;11709;52.420;10.538;2023-04-09T21:48:15;8.30;99.90
23083;DHT22;11709;52.420;10.538;2023-04-09T21:52:17;8.30;99.90
23083;DHT22;11709;52.420;10.538;2023-04-09T21:56:20;8.10;99.90
23083;DHT22;11709;52.420;10.538;2023-04-09T22:00:22;8.10;99.90
23083;DHT22;11709;52.420;10.538;2023-04-09T22:04:25;8.00;99.90
23083;DHT22;11709;52.420;10.538;2023-04-09T22:08:27;7.90;99.90
23083;DHT22;11709;52.420;10.538;2023-04-09T22:12:30;7.90;99.90
23083;DHT22;11709;52.420;10.538;2023-04-09T22:16:32;7.80;99.90
23083;DHT22;11709;52.420;10.538;2023-04-09T22:20:35;7.80;99.90
23083;DHT22;11709;52.420;10.538;2023-04-09T22:24:38;7.80;99.90
23083;DHT22;11709;52.420;10.538;2023-04-09T22:28:42;7.70;99.90
23083;DHT22;11709;52.420;10.538;2023-04-09T22:32:44;7.70;99.90
23083;DHT22;11709;52.420;10.538;2023-04-09T22:36:47;7.70;99.90
23083;DHT22;11709;52.420;10.538;2023-04-09T22:40:49;7.70;99.90
23083;DHT22;11709;52.420;10.538;2023-04-09T22:44:52;7.60;99.90
23083;DHT22;11709;52.420;10.538;2023-04-09T22:48:54;7.60;99.90
23083;DHT22;11709;52.420;10.538;2023-04-09T22:52:57;7.50;99.90
23083;DHT22;11709;52.420;10.538;2023-04-09T22:57:00;7.50;99.90
23083;DHT22;11709;52.420;10.538;2023-04-09T23:01:03;7.40;99.90
23083;DHT22;11709;52.420;10.538;2023-04-09T23:05:08;7.40;99.90
23083;DHT22;11709;52.420;10.538;2023-04-09T23:09:11;7.30;99.90
23083;DHT22;11709;52.420;10.538;2023-04-09T23:13:13;7.30;99.90
23083;DHT22;11709;52.420;10.538;2023-04-09T23:17:17;7.20;99.90
23083;DHT22;11709;52.420;10.538;2023-04-09T23:21:21;7.20;99.90
23083;DHT22;11709;52.420;10.538;2023-04-09T23:25:24;7.10;99.90
23083;DHT22;11709;52.420;10.538;2023-04-09T23:29:26;7.00;99.90
23083;DHT22;11709;52.420;10.538;2023-04-09T23:33:29;6.90;99.90
23083;DHT22;11709;52.420;10.538;2023-04-09T23:37:32;6.70;99.90
23083;DHT22;11709;52.420;10.538;2023-04-09T23:41:36;6.70;99.90
23083;DHT22;11709;52.420;10.538;2023-04-09T23:45:38;6.60;99.90
23083;DHT22;11709;52.420;10.538;2023-04-09T23:49:41;6.50;99.90
23083;DHT22;11709;52.420;10.538;2023-04-09T23:53:44;6.50;99.90
23083;DHT22;11709;52.420;10.538;2023-04-09T23:57:46;6.50;99.90
